Abington, Pennsylvania
Current Conditions -  °F | °C
As of 3:54 AM on Wednesday 26 Nov 2014 (Local Time) from KPNE Reporting Station
Light Rain Light Rain  
Wind Chill: 50°   Ceiling: 12000
Heat Index: 50°   Visibility: 10mi
Dew Point: 29°   Wind: 14mph
Humidity: 44%   Direction: 360°N
Pressure: 30.1"   Gusts: NA
Location:  40.12°N, 75.12°W
Report Text: KPNE 260854Z 36012KT 10SM -RA FEW055 SCT085 OVC120 10/M02 A3010 RMK AO2 RAB54 PRESFR SLP193 P0000 60000 T01001017 58029 $
Loading
Personal Weather Stations






























Interactive Weather Map New forecast layout! Learn more

10-Day Weather Forecast

Advertisements
Track Severe Weather on mobile